sensor_id;sensor_type;location;lat;lon;timestamp;P1;durP1;ratioP1;P2;durP2;ratioP2
2416;SDS011;1219;48.736;9.330;2023-07-28T00:00:02;4.10;;;3.80;;
2416;SDS011;1219;48.736;9.330;2023-07-28T00:02:29;5.07;;;3.40;;
2416;SDS011;1219;48.736;9.330;2023-07-28T00:04:55;3.97;;;3.57;;
2416;SDS011;1219;48.736;9.330;2023-07-28T00:07:21;5.27;;;3.47;;
2416;SDS011;1219;48.736;9.330;2023-07-28T00:09:47;3.63;;;3.33;;
2416;SDS011;1219;48.736;9.330;2023-07-28T00:12:13;4.00;;;3.70;;
2416;SDS011;1219;48.736;9.330;2023-07-28T00:14:39;3.93;;;3.53;;
2416;SDS011;1219;48.736;9.330;2023-07-28T00:17:05;3.50;;;3.20;;
2416;SDS011;1219;48.736;9.330;2023-07-28T00:19:31;3.77;;;3.50;;
2416;SDS011;1219;48.736;9.330;2023-07-28T00:21:57;3.90;;;3.60;;
2416;SDS011;1219;48.736;9.330;2023-07-28T00:24:22;4.97;;;3.93;;
2416;SDS011;1219;48.736;9.330;2023-07-28T00:26:48;3.63;;;3.33;;
2416;SDS011;1219;48.736;9.330;2023-07-28T00:29:14;4.53;;;4.10;;
2416;SDS011;1219;48.736;9.330;2023-07-28T00:31:40;4.00;;;3.60;;
2416;SDS011;1219;48.736;9.330;2023-07-28T00:34:06;5.23;;;3.50;;
2416;SDS011;1219;48.736;9.330;2023-07-28T00:36:32;4.30;;;3.70;;
2416;SDS011;1219;48.736;9.330;2023-07-28T00:38:58;4.17;;;3.87;;
2416;SDS011;1219;48.736;9.330;2023-07-28T00:41:24;4.27;;;3.90;;
2416;SDS011;1219;48.736;9.330;2023-07-28T00:43:50;4.57;;;4.17;;
2416;SDS011;1219;48.736;9.330;2023-07-28T00:46:16;4.07;;;3.77;;
2416;SDS011;1219;48.736;9.330;2023-07-28T00:48:42;3.90;;;3.60;;
2416;SDS011;1219;48.736;9.330;2023-07-28T00:51:08;6.00;;;4.00;;
2416;SDS011;1219;48.736;9.330;2023-07-28T00:53:35;8.97;;;3.90;;
2416;SDS011;1219;48.736;9.330;2023-07-28T00:56:01;6.57;;;4.30;;
2416;SDS011;1219;48.736;9.330;2023-07-28T00:58:29;4.57;;;4.17;;
2416;SDS011;1219;48.736;9.330;2023-07-28T01:00:55;9.00;;;4.37;;
2416;SDS011;1219;48.736;9.330;2023-07-28T01:03:21;4.83;;;4.40;;
2416;SDS011;1219;48.736;9.330;2023-07-28T01:08:53;4.53;;;4.10;;
2416;SDS011;1219;48.736;9.330;2023-07-28T01:11:21;4.17;;;3.87;;
2416;SDS011;1219;48.736;9.330;2023-07-28T01:13:47;4.50;;;4.17;;
2416;SDS011;1219;48.736;9.330;2023-07-28T01:16:13;4.70;;;4.30;;
2416;SDS011;1219;48.736;9.330;2023-07-28T01:18:39;3.70;;;3.40;;
2416;SDS011;1219;48.736;9.330;2023-07-28T01:21:06;4.23;;;3.83;;
2416;SDS011;1219;48.736;9.330;2023-07-28T01:26:06;4.40;;;4.00;;
2416;SDS011;1219;48.736;9.330;2023-07-28T01:28:34;4.07;;;3.77;;
2416;SDS011;1219;48.736;9.330;2023-07-28T01:31:04;4.40;;;3.80;;
2416;SDS011;1219;48.736;9.330;2023-07-28T01:33:30;4.33;;;3.93;;
2416;SDS011;1219;48.736;9.330;2023-07-28T01:35:56;4.57;;;4.10;;
2416;SDS011;1219;48.736;9.330;2023-07-28T01:38:25;4.93;;;4.43;;
2416;SDS011;1219;48.736;9.330;2023-07-28T01:40:51;4.67;;;4.10;;
2416;SDS011;1219;48.736;9.330;2023-07-28T01:43:17;4.40;;;4.00;;
2416;SDS011;1219;48.736;9.330;2023-07-28T01:45:43;4.67;;;4.17;;
2416;SDS011;1219;48.736;9.330;2023-07-28T01:48:09;4.23;;;3.83;;
2416;SDS011;1219;48.736;9.330;2023-07-28T01:50:35;6.23;;;3.70;;
2416;SDS011;1219;48.736;9.330;2023-07-28T01:53:01;4.83;;;4.43;;
2416;SDS011;1219;48.736;9.330;2023-07-28T01:55:27;4.10;;;3.70;;
2416;SDS011;1219;48.736;9.330;2023-07-28T01:57:54;5.60;;;4.57;;
2416;SDS011;1219;48.736;9.330;2023-07-28T02:00:21;4.13;;;3.83;;
2416;SDS011;1219;48.736;9.330;2023-07-28T02:02:48;4.33;;;3.90;;
2416;SDS011;1219;48.736;9.330;2023-07-28T02:05:14;4.40;;;4.00;;
2416;SDS011;1219;48.736;9.330;2023-07-28T02:07:40;5.27;;;4.77;;
2416;SDS011;1219;48.736;9.330;2023-07-28T02:10:06;4.07;;;3.70;;
2416;SDS011;1219;48.736;9.330;2023-07-28T02:12:32;4.10;;;3.80;;
2416;SDS011;1219;48.736;9.330;2023-07-28T02:14:59;4.67;;;4.27;;
2416;SDS011;1219;48.736;9.330;2023-07-28T02:17:25;5.40;;;4.20;;
2416;SDS011;1219;48.736;9.330;2023-07-28T02:19:51;4.50;;;4.20;;
2416;SDS011;1219;48.736;9.330;2023-07-28T02:22:17;4.43;;;4.10;;
2416;SDS011;1219;48.736;9.330;2023-07-28T02:24:43;4.80;;;4.40;;
2416;SDS011;1219;48.736;9.330;2023-07-28T02:27:09;4.70;;;4.30;;
2416;SDS011;1219;48.736;9.330;2023-07-28T02:29:35;3.60;;;3.33;;
2416;SDS011;1219;48.736;9.330;2023-07-28T02:32:01;4.43;;;4.03;;
2416;SDS011;1219;48.736;9.330;2023-07-28T02:34:27;4.60;;;4.20;;
2416;SDS011;1219;48.736;9.330;2023-07-28T02:36:53;4.47;;;4.07;;
2416;SDS011;1219;48.736;9.330;2023-07-28T02:39:19;5.20;;;4.70;;
2416;SDS011;1219;48.736;9.330;2023-07-28T02:41:45;5.13;;;4.67;;
2416;SDS011;1219;48.736;9.330;2023-07-28T02:44:11;3.93;;;3.53;;
2416;SDS011;1219;48.736;9.330;2023-07-28T02:46:37;4.33;;;4.03;;
2416;SDS011;1219;48.736;9.330;2023-07-28T02:49:03;5.00;;;4.60;;
2416;SDS011;1219;48.736;9.330;2023-07-28T02:51:32;4.50;;;4.20;;
2416;SDS011;1219;48.736;9.330;2023-07-28T02:53:59;4.30;;;4.00;;
2416;SDS011;1219;48.736;9.330;2023-07-28T02:56:25;5.07;;;4.07;;
2416;SDS011;1219;48.736;9.330;2023-07-28T02:58:51;6.10;;;3.77;;
2416;SDS011;1219;48.736;9.330;2023-07-28T03:01:17;4.57;;;4.17;;
2416;SDS011;1219;48.736;9.330;2023-07-28T03:03:43;4.77;;;4.43;;
2416;SDS011;1219;48.736;9.330;2023-07-28T03:06:09;5.73;;;5.33;;
2416;SDS011;1219;48.736;9.330;2023-07-28T03:08:35;6.10;;;3.97;;
2416;SDS011;1219;48.736;9.330;2023-07-28T03:11:01;5.67;;;4.83;;
2416;SDS011;1219;48.736;9.330;2023-07-28T03:13:28;6.53;;;4.10;;
2416;SDS011;1219;48.736;9.330;2023-07-28T03:15:54;5.93;;;4.30;;
2416;SDS011;1219;48.736;9.330;2023-07-28T03:18:20;4.70;;;4.30;;
2416;SDS011;1219;48.736;9.330;2023-07-28T03:20:46;4.00;;;3.70;;
2416;SDS011;1219;48.736;9.330;2023-07-28T03:23:12;6.80;;;4.43;;
2416;SDS011;1219;48.736;9.330;2023-07-28T03:25:38;4.13;;;3.73;;
2416;SDS011;1219;48.736;9.330;2023-07-28T03:28:04;4.30;;;3.90;;
2416;SDS011;1219;48.736;9.330;2023-07-28T03:30:30;5.20;;;4.63;;
2416;SDS011;1219;48.736;9.330;2023-07-28T03:32:56;5.70;;;4.30;;
2416;SDS011;1219;48.736;9.330;2023-07-28T03:35:22;6.23;;;4.17;;
2416;SDS011;1219;48.736;9.330;2023-07-28T03:37:48;4.70;;;4.30;;
2416;SDS011;1219;48.736;9.330;2023-07-28T03:40:14;4.73;;;4.33;;
2416;SDS011;1219;48.736;9.330;2023-07-28T03:42:39;5.10;;;4.40;;
2416;SDS011;1219;48.736;9.330;2023-07-28T03:45:06;4.30;;;4.00;;
2416;SDS011;1219;48.736;9.330;2023-07-28T03:47:32;4.13;;;3.73;;
2416;SDS011;1219;48.736;9.330;2023-07-28T03:49:58;4.00;;;3.60;;
2416;SDS011;1219;48.736;9.330;2023-07-28T03:52:24;4.70;;;4.30;;
2416;SDS011;1219;48.736;9.330;2023-07-28T03:54:50;5.10;;;4.70;;
2416;SDS011;1219;48.736;9.330;2023-07-28T03:57:15;4.53;;;4.07;;
2416;SDS011;1219;48.736;9.330;2023-07-28T03:59:41;4.03;;;3.73;;
2416;SDS011;1219;48.736;9.330;2023-07-28T04:02:07;4.53;;;4.13;;
2416;SDS011;1219;48.736;9.330;2023-07-28T04:04:34;4.67;;;3.63;;
2416;SDS011;1219;48.736;9.330;2023-07-28T04:07:01;7.47;;;3.57;;
2416;SDS011;1219;48.736;9.330;2023-07-28T04:09:27;4.33;;;3.93;;
2416;SDS011;1219;48.736;9.330;2023-07-28T04:11:53;4.60;;;4.30;;
2416;SDS011;1219;48.736;9.330;2023-07-28T04:14:19;4.63;;;4.23;;
2416;SDS011;1219;48.736;9.330;2023-07-28T04:16:45;4.37;;;4.03;;
2416;SDS011;1219;48.736;9.330;2023-07-28T04:19:11;4.67;;;4.20;;
2416;SDS011;1219;48.736;9.330;2023-07-28T04:21:37;5.47;;;4.97;;
2416;SDS011;1219;48.736;9.330;2023-07-28T04:24:09;5.53;;;3.90;;
2416;SDS011;1219;48.736;9.330;2023-07-28T04:26:35;4.60;;;4.20;;
2416;SDS011;1219;48.736;9.330;2023-07-28T04:29:01;16.93;;;4.13;;
2416;SDS011;1219;48.736;9.330;2023-07-28T04:31:27;5.07;;;4.30;;
2416;SDS011;1219;48.736;9.330;2023-07-28T04:33:53;12.70;;;4.40;;
2416;SDS011;1219;48.736;9.330;2023-07-28T04:36:19;6.70;;;5.30;;
2416;SDS011;1219;48.736;9.330;2023-07-28T04:38:45;5.47;;;4.97;;
2416;SDS011;1219;48.736;9.330;2023-07-28T04:41:11;5.00;;;4.60;;
2416;SDS011;1219;48.736;9.330;2023-07-28T04:43:36;4.40;;;3.90;;
2416;SDS011;1219;48.736;9.330;2023-07-28T04:46:02;6.33;;;5.60;;
2416;SDS011;1219;48.736;9.330;2023-07-28T04:48:28;6.00;;;4.60;;
2416;SDS011;1219;48.736;9.330;2023-07-28T04:50:54;5.67;;;5.03;;
2416;SDS011;1219;48.736;9.330;2023-07-28T04:53:20;4.53;;;4.13;;
2416;SDS011;1219;48.736;9.330;2023-07-28T04:55:46;5.00;;;4.60;;
2416;SDS011;1219;48.736;9.330;2023-07-28T04:58:12;4.80;;;4.13;;
2416;SDS011;1219;48.736;9.330;2023-07-28T05:00:38;5.13;;;4.50;;
2416;SDS011;1219;48.736;9.330;2023-07-28T05:03:04;5.17;;;4.77;;
2416;SDS011;1219;48.736;9.330;2023-07-28T05:05:30;4.97;;;4.57;;
2416;SDS011;1219;48.736;9.330;2023-07-28T05:07:56;4.30;;;3.90;;
2416;SDS011;1219;48.736;9.330;2023-07-28T05:10:22;3.43;;;3.23;;
2416;SDS011;1219;48.736;9.330;2023-07-28T05:12:48;4.10;;;3.80;;
2416;SDS011;1219;48.736;9.330;2023-07-28T05:15:14;3.63;;;3.43;;
2416;SDS011;1219;48.736;9.330;2023-07-28T05:17:40;4.40;;;4.00;;
2416;SDS011;1219;48.736;9.330;2023-07-28T05:20:06;3.80;;;3.50;;
2416;SDS011;1219;48.736;9.330;2023-07-28T05:22:32;4.73;;;4.10;;
2416;SDS011;1219;48.736;9.330;2023-07-28T05:24:58;4.73;;;3.53;;
2416;SDS011;1219;48.736;9.330;2023-07-28T05:27:24;4.27;;;3.87;;
2416;SDS011;1219;48.736;9.330;2023-07-28T05:29:50;5.60;;;3.97;;
2416;SDS011;1219;48.736;9.330;2023-07-28T05:32:16;4.70;;;4.30;;
2416;SDS011;1219;48.736;9.330;2023-07-28T05:34:42;4.37;;;4.07;;
2416;SDS011;1219;48.736;9.330;2023-07-28T05:37:09;5.10;;;4.60;;
2416;SDS011;1219;48.736;9.330;2023-07-28T05:39:35;3.93;;;3.63;;
2416;SDS011;1219;48.736;9.330;2023-07-28T05:42:01;5.33;;;4.40;;
2416;SDS011;1219;48.736;9.330;2023-07-28T05:44:27;4.90;;;4.50;;
2416;SDS011;1219;48.736;9.330;2023-07-28T05:46:53;6.90;;;4.60;;
2416;SDS011;1219;48.736;9.330;2023-07-28T05:49:19;4.03;;;3.50;;
2416;SDS011;1219;48.736;9.330;2023-07-28T05:51:45;5.90;;;3.83;;
2416;SDS011;1219;48.736;9.330;2023-07-28T05:54:11;4.37;;;3.97;;
2416;SDS011;1219;48.736;9.330;2023-07-28T05:56:40;7.37;;;4.30;;
2416;SDS011;1219;48.736;9.330;2023-07-28T05:59:06;4.90;;;4.50;;
2416;SDS011;1219;48.736;9.330;2023-07-28T06:01:32;4.70;;;3.77;;
2416;SDS011;1219;48.736;9.330;2023-07-28T06:03:58;4.70;;;4.30;;
2416;SDS011;1219;48.736;9.330;2023-07-28T06:06:24;4.50;;;4.10;;
2416;SDS011;1219;48.736;9.330;2023-07-28T06:08:51;4.47;;;4.13;;
2416;SDS011;1219;48.736;9.330;2023-07-28T06:11:17;4.13;;;3.80;;
2416;SDS011;1219;48.736;9.330;2023-07-28T06:13:43;5.37;;;4.87;;
2416;SDS011;1219;48.736;9.330;2023-07-28T06:16:11;6.43;;;4.50;;
2416;SDS011;1219;48.736;9.330;2023-07-28T06:18:37;3.87;;;3.57;;
2416;SDS011;1219;48.736;9.330;2023-07-28T06:21:03;4.80;;;4.40;;
2416;SDS011;1219;48.736;9.330;2023-07-28T06:23:29;7.03;;;4.97;;
2416;SDS011;1219;48.736;9.330;2023-07-28T06:25:55;5.43;;;4.67;;
2416;SDS011;1219;48.736;9.330;2023-07-28T06:28:21;4.60;;;4.30;;
2416;SDS011;1219;48.736;9.330;2023-07-28T06:30:47;5.33;;;4.43;;
2416;SDS011;1219;48.736;9.330;2023-07-28T06:33:13;5.43;;;5.00;;
2416;SDS011;1219;48.736;9.330;2023-07-28T06:35:39;5.10;;;4.60;;
2416;SDS011;1219;48.736;9.330;2023-07-28T06:38:05;7.07;;;5.53;;
2416;SDS011;1219;48.736;9.330;2023-07-28T06:40:31;5.07;;;4.67;;
2416;SDS011;1219;48.736;9.330;2023-07-28T06:42:57;5.13;;;4.60;;
2416;SDS011;1219;48.736;9.330;2023-07-28T06:45:22;8.23;;;5.87;;
2416;SDS011;1219;48.736;9.330;2023-07-28T06:47:48;5.50;;;5.00;;
2416;SDS011;1219;48.736;9.330;2023-07-28T06:50:16;8.37;;;5.27;;
2416;SDS011;1219;48.736;9.330;2023-07-28T06:52:42;6.33;;;5.83;;
2416;SDS011;1219;48.736;9.330;2023-07-28T06:55:08;5.17;;;4.67;;
2416;SDS011;1219;48.736;9.330;2023-07-28T06:57:34;6.00;;;5.40;;
2416;SDS011;1219;48.736;9.330;2023-07-28T07:00:00;6.57;;;5.17;;
2416;SDS011;1219;48.736;9.330;2023-07-28T07:02:26;5.37;;;4.93;;
2416;SDS011;1219;48.736;9.330;2023-07-28T07:04:52;7.63;;;4.87;;
2416;SDS011;1219;48.736;9.330;2023-07-28T07:07:18;6.50;;;5.00;;
2416;SDS011;1219;48.736;9.330;2023-07-28T07:09:44;6.63;;;5.50;;
2416;SDS011;1219;48.736;9.330;2023-07-28T07:12:10;7.77;;;5.87;;
2416;SDS011;1219;48.736;9.330;2023-07-28T07:14:36;6.37;;;5.77;;
2416;SDS011;1219;48.736;9.330;2023-07-28T07:17:02;5.67;;;5.10;;
2416;SDS011;1219;48.736;9.330;2023-07-28T07:19:28;7.60;;;5.33;;
2416;SDS011;1219;48.736;9.330;2023-07-28T07:21:54;6.30;;;5.70;;
2416;SDS011;1219;48.736;9.330;2023-07-28T07:24:20;5.83;;;5.23;;
2416;SDS011;1219;48.736;9.330;2023-07-28T07:26:46;7.83;;;5.23;;
2416;SDS011;1219;48.736;9.330;2023-07-28T07:29:13;5.90;;;5.40;;
2416;SDS011;1219;48.736;9.330;2023-07-28T07:31:39;9.30;;;4.67;;
2416;SDS011;1219;48.736;9.330;2023-07-28T07:34:05;10.00;;;5.97;;
2416;SDS011;1219;48.736;9.330;2023-07-28T07:36:32;7.50;;;5.10;;
2416;SDS011;1219;48.736;9.330;2023-07-28T07:38:58;6.07;;;5.57;;
2416;SDS011;1219;48.736;9.330;2023-07-28T07:41:24;4.53;;;4.23;;
2416;SDS011;1219;48.736;9.330;2023-07-28T07:43:52;5.70;;;5.00;;
2416;SDS011;1219;48.736;9.330;2023-07-28T07:46:18;7.93;;;4.70;;
2416;SDS011;1219;48.736;9.330;2023-07-28T07:48:47;7.00;;;5.30;;
2416;SDS011;1219;48.736;9.330;2023-07-28T07:51:13;5.73;;;4.50;;
2416;SDS011;1219;48.736;9.330;2023-07-28T07:53:39;6.17;;;4.40;;
2416;SDS011;1219;48.736;9.330;2023-07-28T07:56:05;8.87;;;5.30;;
2416;SDS011;1219;48.736;9.330;2023-07-28T07:58:32;10.20;;;5.00;;
2416;SDS011;1219;48.736;9.330;2023-07-28T08:00:58;5.27;;;4.87;;
2416;SDS011;1219;48.736;9.330;2023-07-28T08:03:24;5.63;;;4.50;;
2416;SDS011;1219;48.736;9.330;2023-07-28T08:05:50;14.40;;;4.97;;
2416;SDS011;1219;48.736;9.330;2023-07-28T08:08:17;5.17;;;4.67;;
2416;SDS011;1219;48.736;9.330;2023-07-28T08:10:45;5.40;;;4.10;;
2416;SDS011;1219;48.736;9.330;2023-07-28T08:13:12;7.40;;;4.20;;
2416;SDS011;1219;48.736;9.330;2023-07-28T08:15:38;5.13;;;4.40;;
2416;SDS011;1219;48.736;9.330;2023-07-28T08:18:04;7.60;;;4.80;;
2416;SDS011;1219;48.736;9.330;2023-07-28T08:20:30;4.20;;;3.80;;
2416;SDS011;1219;48.736;9.330;2023-07-28T08:22:56;6.60;;;4.10;;
2416;SDS011;1219;48.736;9.330;2023-07-28T08:25:22;5.27;;;4.43;;
2416;SDS011;1219;48.736;9.330;2023-07-28T08:27:49;5.37;;;4.87;;
2416;SDS011;1219;48.736;9.330;2023-07-28T08:30:15;3.97;;;3.73;;
2416;SDS011;1219;48.736;9.330;2023-07-28T08:32:41;7.60;;;4.70;;
2416;SDS011;1219;48.736;9.330;2023-07-28T08:35:07;4.13;;;3.83;;
2416;SDS011;1219;48.736;9.330;2023-07-28T08:37:33;5.10;;;4.20;;
2416;SDS011;1219;48.736;9.330;2023-07-28T08:39:59;4.63;;;4.23;;
2416;SDS011;1219;48.736;9.330;2023-07-28T08:42:25;4.77;;;4.37;;
2416;SDS011;1219;48.736;9.330;2023-07-28T08:44:51;7.53;;;4.80;;
2416;SDS011;1219;48.736;9.330;2023-07-28T08:47:17;4.83;;;4.30;;
2416;SDS011;1219;48.736;9.330;2023-07-28T08:49:44;5.00;;;4.47;;
2416;SDS011;1219;48.736;9.330;2023-07-28T08:52:10;5.77;;;4.90;;
2416;SDS011;1219;48.736;9.330;2023-07-28T08:54:36;6.63;;;5.27;;
2416;SDS011;1219;48.736;9.330;2023-07-28T08:57:02;5.63;;;5.13;;
2416;SDS011;1219;48.736;9.330;2023-07-28T08:59:29;5.13;;;4.57;;
2416;SDS011;1219;48.736;9.330;2023-07-28T09:01:56;5.53;;;4.60;;
2416;SDS011;1219;48.736;9.330;2023-07-28T09:04:23;5.10;;;3.80;;
2416;SDS011;1219;48.736;9.330;2023-07-28T09:06:49;5.40;;;4.90;;
2416;SDS011;1219;48.736;9.330;2023-07-28T09:09:15;5.03;;;4.53;;
2416;SDS011;1219;48.736;9.330;2023-07-28T09:11:52;4.33;;;3.93;;
2416;SDS011;1219;48.736;9.330;2023-07-28T09:14:19;5.67;;;4.03;;
2416;SDS011;1219;48.736;9.330;2023-07-28T09:16:45;6.53;;;4.60;;
2416;SDS011;1219;48.736;9.330;2023-07-28T09:19:12;4.57;;;3.93;;
2416;SDS011;1219;48.736;9.330;2023-07-28T09:21:38;5.23;;;4.33;;
2416;SDS011;1219;48.736;9.330;2023-07-28T09:24:14;4.90;;;3.63;;
2416;SDS011;1219;48.736;9.330;2023-07-28T09:26:41;3.77;;;3.47;;
2416;SDS011;1219;48.736;9.330;2023-07-28T09:29:14;3.40;;;3.10;;
2416;SDS011;1219;48.736;9.330;2023-07-28T09:31:41;5.73;;;3.30;;
2416;SDS011;1219;48.736;9.330;2023-07-28T09:34:08;5.50;;;3.73;;
2416;SDS011;1219;48.736;9.330;2023-07-28T09:36:34;6.80;;;3.50;;
2416;SDS011;1219;48.736;9.330;2023-07-28T09:39:01;3.47;;;3.17;;
2416;SDS011;1219;48.736;9.330;2023-07-28T09:41:29;9.40;;;2.57;;
2416;SDS011;1219;48.736;9.330;2023-07-28T09:43:55;5.83;;;3.17;;
2416;SDS011;1219;48.736;9.330;2023-07-28T09:46:22;9.57;;;3.23;;
2416;SDS011;1219;48.736;9.330;2023-07-28T09:48:48;9.90;;;3.80;;
2416;SDS011;1219;48.736;9.330;2023-07-28T09:51:18;3.00;;;2.70;;
2416;SDS011;1219;48.736;9.330;2023-07-28T09:53:53;4.93;;;2.57;;
2416;SDS011;1219;48.736;9.330;2023-07-28T09:56:20;3.07;;;2.47;;
2416;SDS011;1219;48.736;9.330;2023-07-28T09:58:51;3.00;;;2.70;;
2416;SDS011;1219;48.736;9.330;2023-07-28T10:01:18;2.83;;;2.43;;
2416;SDS011;1219;48.736;9.330;2023-07-28T10:03:46;3.63;;;2.27;;
2416;SDS011;1219;48.736;9.330;2023-07-28T10:06:13;4.67;;;2.23;;
2416;SDS011;1219;48.736;9.330;2023-07-28T10:08:41;3.23;;;2.57;;
2416;SDS011;1219;48.736;9.330;2023-07-28T10:11:08;2.70;;;2.30;;
2416;SDS011;1219;48.736;9.330;2023-07-28T10:13:41;2.20;;;2.00;;
2416;SDS011;1219;48.736;9.330;2023-07-28T10:16:07;2.30;;;2.10;;
2416;SDS011;1219;48.736;9.330;2023-07-28T10:18:37;2.50;;;2.30;;
2416;SDS011;1219;48.736;9.330;2023-07-28T10:21:08;2.93;;;2.07;;
2416;SDS011;1219;48.736;9.330;2023-07-28T10:23:38;6.23;;;1.97;;
2416;SDS011;1219;48.736;9.330;2023-07-28T10:26:04;2.70;;;2.50;;
2416;SDS011;1219;48.736;9.330;2023-07-28T10:31:04;2.63;;;2.03;;
2416;SDS011;1219;48.736;9.330;2023-07-28T10:35:57;4.00;;;2.10;;
2416;SDS011;1219;48.736;9.330;2023-07-28T10:38:30;2.50;;;1.90;;
2416;SDS011;1219;48.736;9.330;2023-07-28T10:43:35;2.00;;;1.90;;
2416;SDS011;1219;48.736;9.330;2023-07-28T10:46:01;2.20;;;2.00;;
2416;SDS011;1219;48.736;9.330;2023-07-28T10:48:27;3.00;;;2.27;;
2416;SDS011;1219;48.736;9.330;2023-07-28T10:50:53;2.70;;;2.40;;
2416;SDS011;1219;48.736;9.330;2023-07-28T10:53:19;3.23;;;2.30;;
2416;SDS011;1219;48.736;9.330;2023-07-28T10:55:45;4.60;;;2.70;;
2416;SDS011;1219;48.736;9.330;2023-07-28T10:58:11;2.50;;;2.30;;
2416;SDS011;1219;48.736;9.330;2023-07-28T11:00:37;2.20;;;2.00;;
2416;SDS011;1219;48.736;9.330;2023-07-28T11:03:03;2.27;;;2.07;;
2416;SDS011;1219;48.736;9.330;2023-07-28T11:05:30;2.27;;;2.00;;
2416;SDS011;1219;48.736;9.330;2023-07-28T11:08:00;2.07;;;1.90;;
2416;SDS011;1219;48.736;9.330;2023-07-28T11:10:30;2.00;;;1.83;;
2416;SDS011;1219;48.736;9.330;2023-07-28T11:12:57;2.00;;;1.80;;
2416;SDS011;1219;48.736;9.330;2023-07-28T11:15:24;2.40;;;1.90;;
2416;SDS011;1219;48.736;9.330;2023-07-28T11:17:50;2.17;;;1.97;;
2416;SDS011;1219;48.736;9.330;2023-07-28T11:22:43;2.27;;;1.60;;
2416;SDS011;1219;48.736;9.330;2023-07-28T11:25:10;2.00;;;1.53;;
2416;SDS011;1219;48.736;9.330;2023-07-28T11:27:36;1.70;;;1.60;;
2416;SDS011;1219;48.736;9.330;2023-07-28T11:30:03;2.03;;;1.83;;
2416;SDS011;1219;48.736;9.330;2023-07-28T11:32:30;2.87;;;1.97;;
2416;SDS011;1219;48.736;9.330;2023-07-28T11:35:09;5.70;;;2.30;;
2416;SDS011;1219;48.736;9.330;2023-07-28T11:37:36;1.77;;;1.67;;
2416;SDS011;1219;48.736;9.330;2023-07-28T11:40:03;1.73;;;1.63;;
2416;SDS011;1219;48.736;9.330;2023-07-28T11:42:34;1.97;;;1.77;;
2416;SDS011;1219;48.736;9.330;2023-07-28T11:45:01;1.57;;;1.47;;
2416;SDS011;1219;48.736;9.330;2023-07-28T11:47:28;2.90;;;1.50;;
2416;SDS011;1219;48.736;9.330;2023-07-28T11:49:54;1.87;;;1.77;;
2416;SDS011;1219;48.736;9.330;2023-07-28T11:52:20;1.70;;;1.57;;
2416;SDS011;1219;48.736;9.330;2023-07-28T11:54:46;1.80;;;1.70;;
2416;SDS011;1219;48.736;9.330;2023-07-28T11:57:12;1.73;;;1.53;;
2416;SDS011;1219;48.736;9.330;2023-07-28T11:59:38;3.77;;;1.53;;
2416;SDS011;1219;48.736;9.330;2023-07-28T12:02:04;1.73;;;1.63;;
2416;SDS011;1219;48.736;9.330;2023-07-28T12:04:31;1.63;;;1.53;;
2416;SDS011;1219;48.736;9.330;2023-07-28T12:07:10;4.20;;;1.40;;
2416;SDS011;1219;48.736;9.330;2023-07-28T12:12:13;2.07;;;1.80;;
2416;SDS011;1219;48.736;9.330;2023-07-28T12:14:39;1.80;;;1.53;;
2416;SDS011;1219;48.736;9.330;2023-07-28T12:17:18;2.07;;;1.80;;
2416;SDS011;1219;48.736;9.330;2023-07-28T12:19:57;1.83;;;1.70;;
2416;SDS011;1219;48.736;9.330;2023-07-28T12:22:25;1.90;;;1.80;;
2416;SDS011;1219;48.736;9.330;2023-07-28T12:24:51;2.70;;;2.13;;
2416;SDS011;1219;48.736;9.330;2023-07-28T12:27:16;2.30;;;2.10;;
2416;SDS011;1219;48.736;9.330;2023-07-28T12:29:45;2.87;;;2.67;;
2416;SDS011;1219;48.736;9.330;2023-07-28T12:32:11;4.23;;;2.73;;
2416;SDS011;1219;48.736;9.330;2023-07-28T12:34:37;2.83;;;2.63;;
2416;SDS011;1219;48.736;9.330;2023-07-28T12:37:05;3.00;;;2.80;;
2416;SDS011;1219;48.736;9.330;2023-07-28T12:39:31;3.30;;;2.90;;
2416;SDS011;1219;48.736;9.330;2023-07-28T12:41:57;2.97;;;2.40;;
2416;SDS011;1219;48.736;9.330;2023-07-28T12:44:24;3.00;;;2.37;;
2416;SDS011;1219;48.736;9.330;2023-07-28T12:46:49;4.13;;;2.60;;
2416;SDS011;1219;48.736;9.330;2023-07-28T12:49:15;2.67;;;2.47;;
2416;SDS011;1219;48.736;9.330;2023-07-28T12:51:44;3.53;;;3.23;;
2416;SDS011;1219;48.736;9.330;2023-07-28T12:54:10;4.27;;;2.87;;
2416;SDS011;1219;48.736;9.330;2023-07-28T12:56:37;3.37;;;3.07;;
2416;SDS011;1219;48.736;9.330;2023-07-28T12:59:03;4.10;;;2.40;;
2416;SDS011;1219;48.736;9.330;2023-07-28T13:01:29;2.43;;;2.23;;
2416;SDS011;1219;48.736;9.330;2023-07-28T13:03:55;3.63;;;2.23;;
2416;SDS011;1219;48.736;9.330;2023-07-28T13:06:21;2.00;;;1.90;;
2416;SDS011;1219;48.736;9.330;2023-07-28T13:08:47;2.93;;;1.97;;
2416;SDS011;1219;48.736;9.330;2023-07-28T13:11:13;2.60;;;2.30;;
2416;SDS011;1219;48.736;9.330;2023-07-28T13:13:39;2.80;;;2.20;;
2416;SDS011;1219;48.736;9.330;2023-07-28T13:16:05;2.67;;;2.27;;
2416;SDS011;1219;48.736;9.330;2023-07-28T13:18:31;6.33;;;2.10;;
2416;SDS011;1219;48.736;9.330;2023-07-28T13:20:58;2.30;;;2.03;;
2416;SDS011;1219;48.736;9.330;2023-07-28T13:23:24;6.30;;;2.70;;
2416;SDS011;1219;48.736;9.330;2023-07-28T13:25:50;6.30;;;2.30;;
2416;SDS011;1219;48.736;9.330;2023-07-28T13:28:17;3.37;;;1.87;;
2416;SDS011;1219;48.736;9.330;2023-07-28T13:30:43;3.33;;;2.73;;
2416;SDS011;1219;48.736;9.330;2023-07-28T13:33:09;3.00;;;2.33;;
2416;SDS011;1219;48.736;9.330;2023-07-28T13:35:35;2.40;;;2.20;;
2416;SDS011;1219;48.736;9.330;2023-07-28T13:38:01;3.20;;;2.77;;
2416;SDS011;1219;48.736;9.330;2023-07-28T13:40:27;4.00;;;2.80;;
2416;SDS011;1219;48.736;9.330;2023-07-28T13:42:53;2.60;;;2.40;;
2416;SDS011;1219;48.736;9.330;2023-07-28T13:45:19;2.27;;;2.07;;
2416;SDS011;1219;48.736;9.330;2023-07-28T13:47:45;3.70;;;2.17;;
2416;SDS011;1219;48.736;9.330;2023-07-28T13:50:11;2.33;;;2.10;;
2416;SDS011;1219;48.736;9.330;2023-07-28T13:52:37;3.63;;;2.03;;
2416;SDS011;1219;48.736;9.330;2023-07-28T13:55:03;2.80;;;2.30;;
2416;SDS011;1219;48.736;9.330;2023-07-28T13:57:30;6.97;;;2.90;;
2416;SDS011;1219;48.736;9.330;2023-07-28T13:59:56;8.17;;;2.97;;
2416;SDS011;1219;48.736;9.330;2023-07-28T14:02:22;4.27;;;3.87;;
2416;SDS011;1219;48.736;9.330;2023-07-28T14:04:48;4.03;;;2.83;;
2416;SDS011;1219;48.736;9.330;2023-07-28T14:07:14;5.47;;;3.00;;
2416;SDS011;1219;48.736;9.330;2023-07-28T14:09:40;3.40;;;2.60;;
2416;SDS011;1219;48.736;9.330;2023-07-28T14:12:06;7.60;;;4.27;;
2416;SDS011;1219;48.736;9.330;2023-07-28T14:14:32;4.20;;;2.63;;
2416;SDS011;1219;48.736;9.330;2023-07-28T14:16:58;5.33;;;2.77;;
2416;SDS011;1219;48.736;9.330;2023-07-28T14:19:24;4.33;;;2.83;;
2416;SDS011;1219;48.736;9.330;2023-07-28T14:21:50;3.70;;;2.60;;
2416;SDS011;1219;48.736;9.330;2023-07-28T14:24:16;3.60;;;3.33;;
2416;SDS011;1219;48.736;9.330;2023-07-28T14:26:42;3.10;;;2.90;;
2416;SDS011;1219;48.736;9.330;2023-07-28T14:29:07;3.30;;;3.00;;
2416;SDS011;1219;48.736;9.330;2023-07-28T14:31:33;6.40;;;3.40;;
2416;SDS011;1219;48.736;9.330;2023-07-28T14:33:59;7.13;;;3.67;;
2416;SDS011;1219;48.736;9.330;2023-07-28T14:36:25;2.80;;;2.50;;
2416;SDS011;1219;48.736;9.330;2023-07-28T14:38:51;3.33;;;3.07;;
2416;SDS011;1219;48.736;9.330;2023-07-28T14:41:17;4.60;;;3.20;;
2416;SDS011;1219;48.736;9.330;2023-07-28T14:43:43;3.07;;;2.60;;
2416;SDS011;1219;48.736;9.330;2023-07-28T14:46:10;5.70;;;3.80;;
2416;SDS011;1219;48.736;9.330;2023-07-28T14:48:36;4.93;;;2.93;;
2416;SDS011;1219;48.736;9.330;2023-07-28T14:51:02;8.00;;;3.10;;
2416;SDS011;1219;48.736;9.330;2023-07-28T14:55:54;3.77;;;3.47;;
2416;SDS011;1219;48.736;9.330;2023-07-28T14:58:20;4.00;;;3.60;;
2416;SDS011;1219;48.736;9.330;2023-07-28T15:00:46;7.40;;;4.20;;
2416;SDS011;1219;48.736;9.330;2023-07-28T15:03:12;3.70;;;3.40;;
2416;SDS011;1219;48.736;9.330;2023-07-28T15:05:38;5.20;;;4.37;;
2416;SDS011;1219;48.736;9.330;2023-07-28T15:08:04;4.70;;;3.90;;
2416;SDS011;1219;48.736;9.330;2023-07-28T15:10:31;6.10;;;4.10;;
2416;SDS011;1219;48.736;9.330;2023-07-28T15:12:56;8.60;;;5.27;;
2416;SDS011;1219;48.736;9.330;2023-07-28T15:15:23;5.17;;;3.90;;
2416;SDS011;1219;48.736;9.330;2023-07-28T15:17:49;4.10;;;3.60;;
2416;SDS011;1219;48.736;9.330;2023-07-28T15:20:15;6.10;;;4.03;;
2416;SDS011;1219;48.736;9.330;2023-07-28T15:22:44;4.30;;;3.70;;
2416;SDS011;1219;48.736;9.330;2023-07-28T15:25:11;4.20;;;3.10;;
2416;SDS011;1219;48.736;9.330;2023-07-28T15:27:37;5.97;;;3.53;;
2416;SDS011;1219;48.736;9.330;2023-07-28T15:30:03;3.47;;;3.00;;